Tyhee, Idaho
Current Conditions -  °F | °C
As of 12:53 PM on Wednesday 17 Dec 2014 (Local Time) from KPIH Reporting Station
Light Fog Light Fog  
Wind Chill: 35°   Ceiling: 1100
Heat Index: 35°   Visibility: 10mi
Dew Point: 33°   Wind: 3mph
Humidity: 92%   Direction: NA
Pressure: 29.99"   Gusts: NA
Location:  42.8976°N, 112.37°W
Report Text: KPIH 171953Z VRB03KT 10SM BCFG FEW005 BKN011 02/01 A2999 RMK AO2 SLP172 VIS W 2 T00170006
Loading
Personal Weather Stations






























Interactive Weather Map New forecast layout! Learn more

10-Day Weather Forecast

Advertisements
Track Severe Weather on mobile